Time;durP1;ratioP1;P1;durP2;ratioP2;P2;SDS_P1;SDS_P2;PMS_P1;PMS_P2;Temp;Humidity;BMP_temperature;BMP_pressure;BME280_temperature;BME280_humidity;BME280_pressure;Samples;Min_cycle;Max_cycle;Signal;HPM_P1;HPM_P2
2022/10/07 00:00:50;;;;;;;8.98;2.92;;;8.40;99.90;;;-144.05;70.36;125687.94;5071785;28;20021;-82
2022/10/07 00:03:19;;;;;;;11.02;2.70;;;8.50;99.90;;;-144.05;70.55;125687.94;5070518;28;20028;-80
2022/10/07 00:05:45;;;;;;;11.52;2.75;;;8.50;99.90;;;-144.05;70.04;125687.94;5070367;28;20052;-82
2022/10/07 00:08:11;;;;;;;10.90;2.80;;;8.60;99.90;;;-144.05;69.66;125687.94;5071439;28;20040;-83
2022/10/07 00:10:41;;;;;;;11.02;3.13;;;8.60;99.90;;;-144.05;69.87;125687.94;5053810;28;20028;-82
2022/10/07 00:13:10;;;;;;;14.60;3.00;;;8.60;99.90;;;-144.05;69.96;125687.94;5070350;28;20032;-82
2022/10/07 00:15:38;;;;;;;18.00;3.90;;;8.70;99.90;;;-144.05;70.01;125687.94;5071778;28;20021;-82
2022/10/07 00:18:04;;;;;;;10.45;2.75;;;8.80;99.90;;;-144.05;69.65;125687.94;5071473;28;20024;-83
2022/10/07 00:20:29;;;;;;;9.00;2.45;;;8.80;99.90;;;-144.05;69.68;125687.94;5053652;28;20024;-81
2022/10/07 00:22:55;;;;;;;9.32;2.83;;;8.80;99.90;;;-144.05;69.31;125687.94;5071677;28;20507;-82
2022/10/07 00:25:21;;;;;;;13.48;2.90;;;8.80;99.90;;;-144.05;69.00;125687.94;5071969;28;20035;-83
2022/10/07 00:27:49;;;;;;;11.40;2.20;;;8.80;99.90;;;-144.05;69.33;125687.94;5076447;28;20475;-81
2022/10/07 00:30:15;;;;;;;9.48;3.67;;;8.90;99.90;;;-144.05;68.86;125687.94;5062565;28;20081;-83
2022/10/07 00:32:41;;;;;;;9.73;2.40;;;8.90;99.90;;;-144.05;68.75;125687.94;5072307;28;20205;-82
2022/10/07 00:35:07;;;;;;;9.80;2.55;;;9.00;99.90;;;-144.05;68.31;125687.94;5071864;28;20025;-82
2022/10/07 00:37:34;;;;;;;8.30;2.30;;;9.00;99.90;;;-144.05;68.69;125687.94;5071879;28;20073;-82
2022/10/07 00:40:00;;;;;;;8.25;2.22;;;9.00;99.90;;;-144.05;68.60;125687.94;5071385;28;20575;-80
2022/10/07 00:42:28;;;;;;;18.70;2.30;;;9.00;99.90;;;-144.05;68.79;125687.94;5053534;28;20035;-79
2022/10/07 00:44:54;;;;;;;9.80;2.75;;;9.10;99.90;;;-144.05;68.41;125687.94;5071315;28;20029;-81
2022/10/07 00:47:40;;;;;;;8.70;2.60;;;9.10;99.90;;;-144.05;68.87;125687.94;5071590;28;20031;-79
2022/10/07 00:50:26;;;;;;;10.25;2.63;;;9.10;99.90;;;-144.05;68.54;125687.94;5071427;28;20134;-79
2022/10/07 00:53:00;;;;;;;10.05;3.20;;;9.20;99.90;;;-144.05;67.97;125687.94;5053302;28;20037;-78
2022/10/07 00:55:30;;;;;;;7.68;2.50;;;9.20;99.90;;;-144.05;67.59;125687.94;5069872;28;20104;-79
2022/10/07 00:58:07;;;;;;;9.05;1.88;;;9.30;99.90;;;-144.05;67.81;125687.94;5071101;28;20024;-80
2022/10/07 01:00:33;;;;;;;12.13;2.15;;;9.30;99.90;;;-144.05;67.43;125687.94;5071277;28;20368;-78
2022/10/07 01:02:59;;;;;;;15.13;3.03;;;9.30;99.90;;;-144.05;67.65;125687.94;5071270;28;20090;-80
2022/10/07 01:05:25;;;;;;;12.65;2.30;;;9.30;99.90;;;-144.05;67.44;125687.94;5071608;28;20147;-79
2022/10/07 01:07:51;;;;;;;10.63;2.85;;;9.30;99.90;;;-144.05;66.98;125687.94;5071124;28;20028;-80
2022/10/07 01:10:20;;;;;;;8.02;2.28;;;9.30;99.90;;;-144.05;67.16;125687.94;5071160;28;20028;-78
2022/10/07 01:13:08;;;;;;;9.80;2.22;;;9.30;99.90;;;-144.05;67.64;125687.94;5070947;28;20441;-79
2022/10/07 01:15:59;;;;;;;10.27;2.78;;;9.30;99.90;;;-144.05;67.34;125687.94;5053064;28;20025;-78
2022/10/07 01:18:56;;;;;;;9.90;2.47;;;9.30;99.90;;;-144.05;67.45;125687.94;5070970;28;20111;-79
2022/10/07 01:21:51;;;;;;;9.27;1.92;;;9.20;99.90;;;-144.05;67.20;125687.94;5069727;28;20047;-78
2022/10/07 01:25:02;;;;;;;5.85;2.60;;;9.10;99.90;;;-144.05;67.89;125687.94;5071036;28;20059;-79
2022/10/07 01:27:30;;;;;;;8.75;2.88;;;9.00;99.90;;;-144.05;68.21;125687.94;5069747;28;20041;-79
2022/10/07 01:30:05;;;;;;;8.65;2.15;;;9.00;99.90;;;-144.05;68.28;125687.94;5069627;28;20506;-79
2022/10/07 01:32:38;;;;;;;12.23;2.90;;;9.00;99.90;;;-144.05;69.11;125687.94;5070652;28;20033;-79
2022/10/07 01:35:17;;;;;;;13.57;2.40;;;9.00;99.90;;;-144.05;68.81;125687.94;5071547;28;20290;-81
2022/10/07 01:37:56;;;;;;;15.05;2.35;;;9.00;99.90;;;-144.05;68.30;125687.94;5074716;28;20091;-78
2022/10/07 01:40:44;;;;;;;11.95;2.40;;;9.10;99.90;;;-144.05;68.19;125687.94;5075208;28;20115;-78
2022/10/07 01:43:16;;;;;;;9.80;2.78;;;9.10;99.90;;;-144.05;67.65;125687.94;5073485;28;20024;-80
2022/10/07 01:45:42;;;;;;;13.88;2.97;;;9.20;99.90;;;-144.05;67.44;125687.94;5074855;28;20040;-78
2022/10/07 01:48:09;;;;;;;9.60;3.42;;;9.20;99.90;;;-144.05;67.51;125687.94;5074484;28;20029;-80
2022/10/07 01:50:37;;;;;;;12.82;2.50;;;9.20;99.90;;;-144.05;67.64;125687.94;5074457;28;20020;-79
2022/10/07 01:53:50;;;;;;;6.28;2.50;;;9.20;99.90;;;-144.05;67.74;125687.94;5074415;28;20432;-79
2022/10/07 01:56:55;;;;;;;8.85;2.10;;;9.30;99.90;;;-144.05;67.19;125687.94;5056482;28;20021;-79
2022/10/07 02:00:09;;;;;;;10.15;2.45;;;9.40;99.90;;;-144.05;66.93;125687.94;5057609;28;20033;-81
2022/10/07 02:03:12;;;;;;;10.20;2.63;;;9.40;99.90;;;-144.05;66.74;125687.94;5064270;28;20112;-80
2022/10/07 02:06:29;;;;;;;14.80;2.50;;;9.50;99.90;;;-144.05;67.07;125687.94;5081993;28;20475;-83
2022/10/07 02:09:01;;;;;;;13.63;2.90;;;9.50;99.90;;;-144.05;66.71;125687.94;5051660;28;20275;-78
2022/10/07 02:11:38;;;;;;;16.25;3.10;;;9.50;99.90;;;-144.05;66.48;125687.94;5075292;28;20032;-80
2022/10/07 02:14:23;;;;;;;20.77;2.60;;;9.50;99.90;;;-144.05;66.85;125687.94;5075045;28;20113;-81
2022/10/07 02:17:09;;;;;;;11.80;2.38;;;9.40;99.90;;;-144.05;66.85;125687.94;5074519;28;20029;-78
2022/10/07 02:19:46;;;;;;;9.20;2.35;;;9.40;99.90;;;-144.05;66.50;125687.94;5056203;28;20032;-79
2022/10/07 02:22:17;;;;;;;11.25;2.92;;;9.30;99.90;;;-144.05;66.92;125687.94;5073519;28;20037;-79
2022/10/07 02:24:48;;;;;;;10.88;3.10;;;9.30;99.90;;;-144.05;67.03;125687.94;5076141;28;20589;-79
2022/10/07 02:27:27;;;;;;;13.88;3.78;;;9.30;99.90;;;-144.05;67.34;125687.94;5074219;28;20028;-78
2022/10/07 02:30:07;;;;;;;12.30;3.45;;;9.30;99.90;;;-144.05;67.67;125687.94;5055733;28;20028;-78
2022/10/07 02:32:38;;;;;;;11.40;3.50;;;9.30;99.90;;;-144.05;66.89;125687.94;5073725;28;20502;-80
2022/10/07 02:35:36;;;;;;;14.48;3.42;;;9.30;99.90;;;-144.05;66.69;125687.94;5072697;28;20056;-79
2022/10/07 02:38:11;;;;;;;11.98;3.17;;;9.30;99.90;;;-144.05;66.87;125687.94;5073399;28;20467;-79
2022/10/07 02:41:00;;;;;;;18.42;3.80;;;9.30;99.90;;;-144.05;67.36;125687.94;5073711;28;20089;-79
2022/10/07 02:43:52;;;;;;;12.57;3.80;;;9.30;99.90;;;-144.05;67.20;125687.94;5055398;28;20055;-79
2022/10/07 02:46:28;;;;;;;13.80;2.90;;;9.30;99.90;;;-144.05;66.78;125687.94;5055160;28;20025;-79
2022/10/07 02:49:06;;;;;;;12.70;3.90;;;9.30;99.90;;;-144.05;67.40;125687.94;5055538;28;20032;-79
2022/10/07 02:51:53;;;;;;;13.13;3.35;;;9.30;99.90;;;-144.05;67.66;125687.94;5073540;28;20025;-79
2022/10/07 02:54:33;;;;;;;9.45;2.78;;;9.30;99.90;;;-144.05;67.17;125687.94;5073415;28;20098;-79
2022/10/07 02:57:02;;;;;;;11.88;3.25;;;9.20;99.90;;;-144.05;67.08;125687.94;5073553;28;20027;-78
2022/10/07 02:59:32;;;;;;;10.50;3.10;;;9.20;99.90;;;-144.05;66.93;125687.94;5073416;28;20020;-79
2022/10/07 03:02:05;;;;;;;11.32;3.10;;;9.20;99.90;;;-144.05;66.91;125687.94;5073102;28;20028;-79
2022/10/07 03:04:31;;;;;;;12.60;3.33;;;9.20;99.90;;;-144.05;67.27;125687.94;5073191;28;20037;-79
2022/10/07 03:06:58;;;;;;;11.85;3.50;;;9.20;99.90;;;-144.05;67.32;125687.94;5073055;28;20040;-79
2022/10/07 03:09:25;;;;;;;12.18;3.33;;;9.10;99.90;;;-144.05;67.49;125687.94;5072686;28;20059;-79
2022/10/07 03:11:50;;;;;;;13.57;3.47;;;9.10;99.90;;;-144.05;67.41;125687.94;5054980;28;20119;-79
2022/10/07 03:14:17;;;;;;;13.88;3.08;;;9.00;99.90;;;-144.05;67.68;125687.94;5073007;28;20495;-79
2022/10/07 03:16:43;;;;;;;14.25;3.28;;;9.00;99.90;;;-144.05;67.27;125687.94;5054888;28;20131;-79
2022/10/07 03:19:09;;;;;;;10.98;3.38;;;9.00;99.90;;;-144.05;67.74;125687.94;5072827;28;20056;-78
2022/10/07 03:21:35;;;;;;;13.00;3.50;;;8.90;99.90;;;-144.05;67.59;125687.94;5072870;28;20036;-78
2022/10/07 03:24:03;;;;;;;10.15;2.47;;;8.90;99.90;;;-144.05;67.67;125687.94;5072813;28;20100;-76
2022/10/07 03:26:31;;;;;;;12.82;2.70;;;8.90;99.90;;;-144.05;67.51;125687.94;5072619;28;20025;-77
2022/10/07 03:29:00;;;;;;;11.13;3.50;;;8.80;99.90;;;-144.05;67.63;125687.94;5072366;28;20046;-77
2022/10/07 03:31:27;;;;;;;17.38;3.55;;;8.70;99.90;;;-144.05;68.65;125687.94;5054684;28;20032;-78
2022/10/07 03:33:57;;;;;;;10.90;3.33;;;8.70;99.90;;;-144.05;68.34;125687.94;5086060;28;20049;-76
2022/10/07 03:36:24;;;;;;;13.93;3.03;;;8.60;99.90;;;-144.05;68.03;125687.94;5074384;28;20032;-76
2022/10/07 03:38:50;;;;;;;9.13;2.90;;;8.50;99.90;;;-144.05;68.24;125687.94;5072383;28;20035;-78
2022/10/07 03:41:18;;;;;;;6.05;2.63;;;8.40;99.90;;;-144.05;68.41;125687.94;5071829;28;20029;-80
2022/10/07 03:43:44;;;;;;;11.35;3.25;;;8.30;99.90;;;-144.05;68.66;125687.94;5055000;28;20032;-80
2022/10/07 03:46:10;;;;;;;12.27;3.55;;;8.20;99.90;;;-144.05;69.37;125687.94;5072831;28;20024;-78
2022/10/07 03:48:36;;;;;;;10.95;3.08;;;8.10;99.90;;;-144.05;69.72;125687.94;5072446;28;20040;-79
2022/10/07 03:51:02;;;;;;;8.68;2.53;;;8.00;99.90;;;-144.05;70.39;125687.94;5072552;28;20403;-79
2022/10/07 03:53:28;;;;;;;15.43;3.55;;;7.90;99.90;;;-144.05;70.66;125687.94;5072755;28;20064;-78
2022/10/07 03:55:56;;;;;;;8.65;3.00;;;7.90;99.90;;;-144.05;70.89;125687.94;5072384;28;20024;-79
2022/10/07 03:58:22;;;;;;;11.45;2.83;;;7.90;99.90;;;-144.05;70.81;125687.94;5070253;28;20032;-78
2022/10/07 04:00:47;;;;;;;11.60;3.55;;;7.90;99.90;;;-144.05;71.21;125687.94;5072454;28;20024;-81
2022/10/07 04:03:17;;;;;;;17.05;3.25;;;7.90;99.90;;;-144.05;71.42;125687.94;5054408;28;20028;-79
2022/10/07 04:05:53;;;;;;;12.73;2.78;;;7.90;99.90;;;-144.05;71.37;125687.94;5070782;28;20043;-76
2022/10/07 04:08:19;;;;;;;16.05;3.15;;;8.00;99.90;;;-144.05;71.23;125687.94;5071950;28;20051;-76
2022/10/07 04:10:45;;;;;;;9.98;3.25;;;8.00;99.90;;;-144.05;70.85;125687.94;5072672;28;20025;-78
2022/10/07 04:13:11;;;;;;;14.68;2.80;;;8.10;99.90;;;-144.05;70.78;125687.94;5072236;28;20131;-78
2022/10/07 04:15:39;;;;;;;10.73;2.90;;;8.10;99.90;;;-144.05;70.68;125687.94;5072181;28;20108;-80
2022/10/07 04:18:05;;;;;;;17.60;4.20;;;8.10;99.90;;;-144.05;70.82;125687.94;5071989;28;20177;-78
2022/10/07 04:20:31;;;;;;;9.68;2.83;;;8.10;99.90;;;-144.05;71.00;125687.94;5071961;28;20028;-78
2022/10/07 04:22:57;;;;;;;12.77;2.92;;;8.10;99.90;;;-144.05;71.00;125687.94;5072154;28;20043;-78
2022/10/07 04:25:32;;;;;;;10.60;3.35;;;8.20;99.90;;;-144.05;71.11;125687.94;5071891;28;20063;-78
2022/10/07 04:28:06;;;;;;;14.43;3.63;;;8.30;99.90;;;-144.05;70.64;125687.94;5071850;28;20028;-79
2022/10/07 04:30:39;;;;;;;12.48;3.50;;;8.30;99.90;;;-144.05;70.37;125687.94;5053916;28;20043;-80
2022/10/07 04:33:06;;;;;;;8.90;2.78;;;8.40;99.90;;;-144.05;70.56;125687.94;5071825;28;20099;-80
2022/10/07 04:35:37;;;;;;;18.27;3.13;;;8.40;99.90;;;-144.05;69.96;125687.94;5071677;28;20086;-78
2022/10/07 04:38:08;;;;;;;13.88;4.53;;;8.50;99.90;;;-144.05;69.88;125687.94;5071787;28;20100;-79
2022/10/07 04:40:45;;;;;;;12.07;3.95;;;8.40;99.90;;;-144.05;69.72;125687.94;5072044;28;20031;-78
2022/10/07 04:43:22;;;;;;;11.93;2.88;;;8.50;99.90;;;-144.05;69.94;125687.94;5072508;28;20025;-80
2022/10/07 04:46:14;;;;;;;17.23;3.50;;;8.50;99.90;;;-144.05;69.85;125687.94;5053760;28;20024;-78
2022/10/07 04:48:44;;;;;;;11.15;4.05;;;8.50;99.90;;;-144.05;69.62;125687.94;5068782;28;20392;-79
2022/10/07 04:51:11;;;;;;;11.55;3.08;;;8.50;99.90;;;-144.05;69.45;125687.94;5072073;28;20031;-80
2022/10/07 04:53:38;;;;;;;11.60;3.08;;;8.60;99.90;;;-144.05;69.38;125687.94;5072433;28;20547;-80
2022/10/07 04:56:05;;;;;;;11.90;2.85;;;8.60;99.90;;;-144.05;68.89;125687.94;5053896;28;20028;-79
2022/10/07 04:58:31;;;;;;;11.90;2.90;;;8.60;99.90;;;-144.05;68.87;125687.94;5053606;28;20032;-77
2022/10/07 05:01:00;;;;;;;19.17;3.72;;;8.50;99.90;;;-144.05;69.26;125687.94;5071850;28;20042;-79
2022/10/07 05:03:29;;;;;;;11.70;3.35;;;8.50;99.90;;;-144.05;69.03;125687.94;5072295;28;20107;-77
2022/10/07 05:06:02;;;;;;;19.75;4.40;;;8.50;99.90;;;-144.05;69.10;125687.94;5072235;28;20028;-77
2022/10/07 05:08:28;;;;;;;13.63;3.22;;;8.40;99.90;;;-144.05;69.06;125687.94;5071910;28;20036;-77
2022/10/07 05:10:57;;;;;;;11.40;3.10;;;8.40;99.90;;;-144.05;68.93;125687.94;5075632;28;20036;-78
2022/10/07 05:13:25;;;;;;;9.85;2.70;;;8.30;99.90;;;-144.05;69.04;125687.94;5076263;28;20036;-78
2022/10/07 05:15:55;;;;;;;12.13;2.78;;;8.20;99.90;;;-144.05;69.67;125687.94;5076499;28;20024;-79
2022/10/07 05:18:25;;;;;;;12.73;2.70;;;8.20;99.90;;;-144.05;69.97;125687.94;5086845;28;20028;-81
2022/10/07 05:20:52;;;;;;;9.93;2.95;;;8.20;99.90;;;-144.05;69.97;125687.94;5096341;28;20035;-78
2022/10/07 05:23:24;;;;;;;9.45;2.35;;;8.20;99.90;;;-144.05;69.73;125687.94;5095902;28;20035;-77
2022/10/07 05:26:06;;;;;;;11.65;3.22;;;8.20;99.90;;;-144.05;69.42;125687.94;5099170;28;20048;-78
2022/10/07 05:28:34;;;;;;;8.40;3.08;;;8.30;99.90;;;-144.05;69.66;125687.94;5099159;28;20032;-75
2022/10/07 05:31:10;;;;;;;12.23;3.38;;;8.40;99.90;;;-144.05;69.18;125687.94;5098998;28;20107;-77
2022/10/07 05:33:37;;;;;;;13.52;2.80;;;8.40;99.90;;;-144.05;68.49;125687.94;5062605;28;20051;-79
2022/10/07 05:36:07;;;;;;;8.85;2.47;;;8.50;99.90;;;-144.05;68.38;125687.94;5076811;28;20024;-77
2022/10/07 05:38:34;;;;;;;13.25;2.80;;;8.70;99.90;;;-144.05;68.17;125687.94;5076317;28;20514;-78
2022/10/07 05:41:08;;;;;;;10.35;3.22;;;8.80;99.90;;;-144.05;67.11;125687.94;5076272;28;20029;-78
2022/10/07 05:43:40;;;;;;;13.23;2.92;;;8.90;99.90;;;-144.05;66.71;125687.94;5075738;28;20036;-78
2022/10/07 05:46:14;;;;;;;10.23;2.53;;;8.90;99.90;;;-144.05;66.58;125687.94;5057370;28;20078;-78
2022/10/07 05:48:46;;;;;;;7.97;2.83;;;8.90;99.90;;;-144.05;66.58;125687.94;5073837;28;20063;-78
2022/10/07 05:51:13;;;;;;;11.25;3.08;;;9.00;99.90;;;-144.05;66.10;125687.94;5075309;28;20029;-80
2022/10/07 05:53:40;;;;;;;10.70;2.72;;;9.10;99.90;;;-144.05;66.05;125687.94;5075475;28;20479;-80
2022/10/07 05:56:15;;;;;;;8.18;2.47;;;9.10;99.90;;;-144.05;65.82;125687.94;5075150;28;20553;-79
2022/10/07 05:58:41;;;;;;;11.10;3.13;;;9.10;99.90;;;-144.05;65.65;125687.94;5058381;28;20056;-80
2022/10/07 06:01:19;;;;;;;16.38;3.05;;;9.20;99.90;;;-144.05;65.51;125687.94;5075620;28;20064;-77
2022/10/07 06:03:56;;;;;;;10.93;2.63;;;9.20;99.90;;;-144.05;65.38;125687.94;5074144;28;20032;-78
2022/10/07 06:06:24;;;;;;;10.85;2.58;;;9.20;99.90;;;-144.05;64.83;125687.94;5074470;28;20427;-79
2022/10/07 06:08:52;;;;;;;10.43;1.92;;;9.20;99.90;;;-144.05;64.77;125687.94;5057435;28;20058;-78
2022/10/07 06:14:05;;;;;;;16.10;3.00;;;9.30;99.90;;;-144.05;64.33;125687.94;5074935;28;20048;-77
2022/10/07 06:16:31;;;;;;;7.10;2.53;;;9.40;99.90;;;-144.05;63.92;125687.94;5073970;28;20036;-78
2022/10/07 06:18:58;;;;;;;8.85;3.00;;;9.40;99.90;;;-144.05;63.35;125687.94;5057442;28;20441;-77
2022/10/07 06:21:26;;;;;;;8.70;2.88;;;9.50;99.90;;;-144.05;63.23;125687.94;5075557;28;20033;-77
2022/10/07 06:23:57;;;;;;;7.30;2.17;;;9.60;99.90;;;-144.05;62.60;125687.94;5074979;28;20102;-78
2022/10/07 06:26:23;;;;;;;8.90;2.17;;;9.70;99.90;;;-144.05;62.04;125687.94;5073397;28;20035;-77
2022/10/07 06:28:49;;;;;;;8.35;2.15;;;9.80;99.90;;;-144.05;61.79;125687.94;5075027;28;20044;-78
2022/10/07 06:31:21;;;;;;;14.80;2.63;;;9.80;99.90;;;-144.05;61.75;125687.94;5074539;28;20480;-76
2022/10/07 06:33:49;;;;;;;10.23;2.53;;;9.90;99.90;;;-144.05;61.64;125687.94;5079612;28;20032;-77
2022/10/07 06:36:16;;;;;;;12.82;2.30;;;10.00;99.90;;;-144.05;61.20;125687.94;5073756;28;20077;-77
2022/10/07 06:38:52;;;;;;;10.32;2.67;;;10.10;99.90;;;-144.05;60.75;125687.94;5074719;28;20040;-78
2022/10/07 06:41:20;;;;;;;9.48;2.13;;;10.20;99.90;;;-144.05;60.21;125687.94;5074920;28;20052;-78
2022/10/07 06:43:47;;;;;;;11.68;2.35;;;10.30;99.90;;;-144.05;59.47;125687.94;5074822;28;20491;-78
2022/10/07 06:46:18;;;;;;;8.73;2.28;;;10.40;99.90;;;-144.05;59.34;125687.94;5075033;28;20024;-78
2022/10/07 06:48:45;;;;;;;9.98;2.72;;;10.60;99.90;;;-144.05;58.38;125687.94;5074961;28;20028;-79
2022/10/07 06:51:18;;;;;;;9.70;2.92;;;10.80;99.90;;;-144.05;57.79;125687.94;5073838;28;20024;-78
2022/10/07 06:53:50;;;;;;;8.65;2.60;;;10.90;99.90;;;-144.05;57.92;125687.94;5074339;28;20071;-78
2022/10/07 06:56:16;;;;;;;10.52;2.22;;;11.10;99.90;;;-144.05;57.17;125687.94;5074915;28;20024;-77
2022/10/07 06:58:42;;;;;;;9.10;2.65;;;11.20;99.90;;;-144.05;57.02;125687.94;5056354;28;20368;-79
2022/10/07 07:01:09;;;;;;;6.65;2.67;;;11.40;99.90;;;-144.05;56.26;125687.94;5077532;28;20032;-78
2022/10/07 07:03:35;;;;;;;8.13;2.25;;;11.50;99.90;;;-144.05;56.45;125687.94;5073697;28;20025;-76
2022/10/07 07:06:01;;;;;;;11.52;2.22;;;11.60;99.90;;;-144.05;55.91;125687.94;5073644;28;20024;-78
2022/10/07 07:08:30;;;;;;;9.95;2.60;;;11.70;99.90;;;-144.05;55.82;125687.94;5055876;28;20239;-77
2022/10/07 07:11:34;;;;;;;9.10;2.45;;;11.80;99.90;;;-144.05;55.47;125687.94;5073560;28;20119;-79
2022/10/07 07:13:53;;;;;;;9.30;2.30;;;12.00;99.90;;;-144.05;54.53;125687.94;5073439;28;20106;-77
2022/10/07 07:16:19;;;;;;;11.70;3.15;;;12.10;99.90;;;-144.05;54.28;125687.94;5073860;28;20020;-77
2022/10/07 07:18:53;;;;;;;9.73;2.35;;;12.30;99.90;;;-144.05;54.07;125687.94;5074090;28;20102;-76
2022/10/07 07:21:20;;;;;;;8.57;2.50;;;12.40;99.90;;;-144.05;53.72;125687.94;5073421;28;20109;-78
2022/10/07 07:23:47;;;;;;;10.68;2.28;;;12.60;99.90;;;-144.05;53.16;125687.94;5073731;28;20404;-78
2022/10/07 07:26:13;;;;;;;11.93;2.85;;;12.70;99.90;;;-144.05;53.57;125687.94;5073579;28;20028;-77
2022/10/07 07:28:40;;;;;;;8.07;1.92;;;12.80;99.90;;;-144.05;53.03;125687.94;5073392;28;20031;-76
2022/10/07 07:31:09;;;;;;;10.50;2.60;;;13.00;99.90;;;-144.05;52.25;125687.94;5073462;28;20478;-78
2022/10/07 07:33:39;;;;;;;8.95;2.15;;;13.10;99.90;;;-144.05;52.10;125687.94;5071980;28;20029;-77
2022/10/07 07:36:17;;;;;;;10.25;2.33;;;13.30;99.90;;;-144.05;51.56;125687.94;5073222;28;20089;-79
2022/10/07 07:39:00;;;;;;;9.60;2.50;;;13.50;99.90;;;-144.05;50.99;125687.94;5073155;28;20029;-78
2022/10/07 07:41:35;;;;;;;11.70;2.25;;;13.70;99.90;;;-144.05;50.51;125687.94;5072938;28;20107;-79
2022/10/07 07:44:05;;;;;;;13.35;2.38;;;13.80;99.90;;;-144.05;51.25;125687.94;5072904;28;20033;-77
2022/10/07 07:46:44;;;;;;;12.18;2.70;;;14.10;99.90;;;-144.05;51.19;125687.94;5073168;28;20094;-78
2022/10/07 07:49:12;;;;;;;5.47;2.08;;;14.20;99.90;;;-144.05;49.89;125687.94;5071322;28;20029;-79
2022/10/07 07:51:44;;;;;;;14.05;2.70;;;14.30;99.90;;;-144.05;49.75;125687.94;5054881;28;20086;-78
2022/10/07 07:54:11;;;;;;;6.13;1.90;;;14.50;99.90;;;-144.05;48.35;125687.94;5073212;28;20065;-78
2022/10/07 07:56:38;;;;;;;10.77;1.55;;;14.70;99.90;;;-144.05;47.95;125687.94;5078741;28;20040;-78
2022/10/07 07:59:07;;;;;;;8.23;1.98;;;14.80;99.90;;;-144.05;48.89;125687.94;5086243;28;20072;-81
2022/10/07 08:01:34;;;;;;;10.05;2.35;;;14.90;99.90;;;-144.05;48.54;125687.94;5087280;28;20139;-82
2022/10/07 08:04:02;;;;;;;7.60;2.38;;;15.00;99.90;;;-144.05;48.66;125687.94;5079472;28;20032;-78
2022/10/07 08:06:30;;;;;;;12.30;2.30;;;15.00;99.90;;;-144.05;48.47;125687.94;5072747;28;20029;-77
2022/10/07 08:08:58;;;;;;;12.18;2.13;;;15.20;99.90;;;-144.05;48.35;125687.94;5054773;28;20037;-77
2022/10/07 08:11:24;;;;;;;8.73;2.00;;;15.20;99.90;;;-144.05;47.79;125687.94;5072336;28;20392;-78
2022/10/07 08:13:50;;;;;;;9.73;1.90;;;15.40;99.90;;;-144.05;47.57;125687.94;5072761;28;20035;-77
2022/10/07 08:16:22;;;;;;;10.70;1.92;;;15.60;99.90;;;-144.05;47.74;125687.94;5072771;28;20025;-80
2022/10/07 08:18:51;;;;;;;10.00;2.22;;;15.70;99.90;;;-144.05;48.17;125687.94;5054432;28;20399;-77
2022/10/07 08:21:22;;;;;;;9.52;1.77;;;15.90;99.90;;;-144.05;45.76;125687.94;5054392;28;20028;-77
2022/10/07 08:23:57;;;;;;;15.23;2.58;;;15.90;99.90;;;-144.05;47.12;125687.94;5074380;28;20134;-79
2022/10/07 08:26:30;;;;;;;8.50;2.00;;;15.90;99.90;;;-144.05;46.74;125687.94;5054601;28;20433;-77
2022/10/07 08:28:58;;;;;;;5.45;1.88;;;16.00;99.90;;;-144.05;47.07;125687.94;5072338;28;20031;-79
2022/10/07 08:31:26;;;;;;;7.90;1.95;;;16.10;99.90;;;-144.05;46.72;125687.94;5072568;28;20071;-79
2022/10/07 08:33:57;;;;;;;8.60;1.88;;;16.20;99.90;;;-144.05;46.04;125687.94;5071886;28;20051;-77
2022/10/07 08:36:26;;;;;;;6.45;2.10;;;16.40;99.90;;;-144.05;45.31;125687.94;5071512;28;20238;-79
2022/10/07 08:38:53;;;;;;;10.25;2.25;;;16.60;99.90;;;-144.05;43.80;125687.94;5072769;28;20459;-77
2022/10/07 08:41:57;;;;;;;12.02;2.97;;;16.80;99.90;;;-144.05;45.41;125687.94;5072299;28;20084;-78
2022/10/07 08:44:39;;;;;;;9.38;2.13;;;16.60;99.90;;;-144.05;44.73;125687.94;5052373;28;20040;-78
2022/10/07 08:47:26;;;;;;;9.07;2.10;;;16.70;99.90;;;-144.05;43.38;125687.94;5070755;28;20050;-78
2022/10/07 08:50:35;;;;;;;7.70;2.22;;;16.80;99.90;;;-144.05;44.54;125687.94;5053442;28;20033;-75
2022/10/07 08:53:07;;;;;;;9.15;2.08;;;16.90;99.90;;;-144.05;43.95;125687.94;5071979;28;20029;-76
2022/10/07 08:55:40;;;;;;;9.40;2.58;;;17.10;99.90;;;-144.05;43.89;125687.94;5072154;28;20063;-78
2022/10/07 08:58:54;;;;;;;11.82;2.20;;;17.30;99.90;;;-144.05;43.42;125687.94;5054439;28;20024;-79
2022/10/07 09:02:21;;;;;;;10.15;1.75;;;17.50;99.90;;;-144.05;43.81;125687.94;5053817;28;20169;-78
2022/10/07 09:05:18;;;;;;;9.23;2.03;;;17.60;99.90;;;-144.05;44.57;125687.94;5072235;28;20064;-78
2022/10/07 09:07:56;;;;;;;10.10;2.33;;;17.20;99.90;;;-144.05;43.95;125687.94;5071697;28;20028;-77
2022/10/07 09:10:41;;;;;;;10.40;2.13;;;17.60;99.90;;;-144.05;42.65;125687.94;5081193;22;20248;-84
2022/10/07 09:13:23;;;;;;;12.95;2.10;;;17.90;99.90;;;-144.05;43.15;125687.94;5043307;28;20035;-82
2022/10/07 09:16:03;;;;;;;10.27;2.53;;;18.00;99.90;;;-144.05;42.44;125687.94;5060421;28;20100;-83
2022/10/07 09:18:40;;;;;;;11.75;2.08;;;18.00;99.90;;;-144.05;43.12;125687.94;5062941;28;20504;-80
2022/10/07 09:21:18;;;;;;;8.75;1.90;;;18.00;99.90;;;-144.05;42.89;125687.94;5058613;28;20103;-82
2022/10/07 09:23:46;;;;;;;7.05;2.10;;;17.90;99.90;;;-144.05;42.93;125687.94;5060281;28;20029;-80
2022/10/07 09:26:15;;;;;;;8.98;2.03;;;18.00;99.90;;;-144.05;43.22;125687.94;5044187;28;20107;-81
2022/10/07 09:28:42;;;;;;;9.93;1.70;;;18.00;99.90;;;-144.05;42.43;125687.94;5061411;28;20484;-82
2022/10/07 09:31:15;;;;;;;10.90;2.20;;;18.30;99.90;;;-144.05;41.86;125687.94;5061276;28;20025;-81
2022/10/07 09:33:49;;;;;;;9.90;2.45;;;18.50;99.90;;;-144.05;42.43;125687.94;5042346;28;20391;-80
2022/10/07 09:36:17;;;;;;;14.65;2.17;;;18.40;99.90;;;-144.05;41.67;125687.94;5061390;28;20032;-81
2022/10/07 09:38:51;;;;;;;11.02;2.75;;;18.40;99.90;;;-144.05;40.74;125687.94;5061952;28;20049;-82
2022/10/07 09:41:31;;;;;;;11.23;2.97;;;18.50;99.90;;;-144.05;39.98;125687.94;5041735;28;20035;-81
2022/10/07 09:44:11;;;;;;;10.95;2.22;;;18.40;99.90;;;-144.05;41.23;125687.94;5061923;28;20500;-81
2022/10/07 09:46:52;;;;;;;7.95;2.05;;;18.30;99.90;;;-144.05;41.96;125687.94;5059959;28;20101;-80
2022/10/07 09:49:27;;;;;;;13.75;2.17;;;18.10;99.90;;;-144.05;41.39;125687.94;5058760;28;20036;-82
2022/10/07 09:52:17;;;;;;;9.77;2.22;;;18.40;99.90;;;-144.05;40.88;125687.94;5059555;28;20029;-81
2022/10/07 09:54:47;;;;;;;8.77;2.15;;;18.40;99.90;;;-144.05;40.98;125687.94;5061572;28;20089;-82
2022/10/07 09:57:39;;;;;;;6.28;1.80;;;18.60;99.90;;;-144.05;40.55;125687.94;5063614;28;20338;-82
2022/10/07 10:00:11;;;;;;;7.95;1.85;;;18.80;99.90;;;-144.05;41.21;125687.94;5063022;28;20048;-82
2022/10/07 10:02:53;;;;;;;12.32;2.42;;;18.70;99.90;;;-144.05;40.34;125687.94;5046991;28;20021;-80
2022/10/07 10:05:56;;;;;;;9.20;2.05;;;18.90;99.90;;;-144.05;40.36;125687.94;5045703;28;20063;-82
2022/10/07 10:08:32;;;;;;;6.15;2.00;;;19.10;99.90;;;-144.05;40.08;125687.94;5047296;28;20075;-81
2022/10/07 10:11:29;;;;;;;10.65;2.10;;;19.00;99.90;;;-144.05;41.24;125687.94;5064018;28;20040;-83
2022/10/07 10:13:55;;;;;;;9.93;2.15;;;19.20;99.90;;;-144.05;39.70;125687.94;5046568;28;20107;-82
2022/10/07 10:16:24;;;;;;;9.43;2.08;;;19.30;99.90;;;-144.05;39.30;125687.94;5066284;28;20036;-83
2022/10/07 10:19:24;;;;;;;7.68;2.50;;;19.40;99.90;;;-144.05;38.45;125687.94;5066207;28;20032;-83
2022/10/07 10:21:57;;;;;;;9.55;1.67;;;19.40;99.90;;;-144.05;38.16;125687.94;5066448;28;20025;-81
2022/10/07 10:28:00;;;;;;;8.15;2.08;;;19.20;99.90;;;-144.05;39.40;125687.94;5032221;28;20056;-82
2022/10/07 10:30:29;;;;;;;7.85;1.92;;;19.00;99.90;;;-144.05;39.91;125687.94;5047999;28;20021;-80
2022/10/07 10:33:41;;;;;;;10.25;2.30;;;19.00;99.90;;;-144.05;39.88;125687.94;5064148;28;20074;-80